McCoy, CO (80463)

9:24 AM MDT on October 22, 2014 (GMT -0600)
RAWS HANGMAN CO US | Change Station
CLOSE
Current Station
Personal Weather Station
Location: Burns, CO
Elevation: 7833 ft
Nearby Weather Stations

Elev 7833 ft 39.92 °N, 106.92 °W | Updated 29 minutes ago

Overcast
Overcast
39 °F
Feels Like 39 °F
N
2
Wind Variable Wind from South
Gusts 5.0 mph

Today
High -- | Low -- °F
--% Chance of Precip.
Yesterday
High -- | Low -- °F
Precip. -- in
7:24 AM 6:17 PM
Waning Crescent, 2% visible
Pressure 30.25 in
Visibility 10.0 miles
Clouds Few 500 ft
Few 8000 ft
Windchill 39 °F
Dew Point 38 °F
Humidity 96%
Rainfall 0.18 in
Snow Depth 0 in
UV 1 out of 12
Pollen 2.40 out of 12
Air Quality Not available.
Flu Activity Sporadic
METAR KEGE 221450Z VRB04KT 10SM FEW005 FEW080 05/04 A3025

More Conditions Fewer Conditions

Pressure 30.25 in
Visibility 10.0 miles
Clouds Few 500 ft
Few 8000 ft
Windchill 39 °F
Dew Point 38 °F
Humidity 96%
Rainfall 0.18 in
Snow Depth 0 in
UV 1 out of 12
Pollen 2.40 out of 12
Air Quality Not available.
Flu Activity Sporadic
METAR KEGE 221450Z VRB04KT 10SM FEW005 FEW080 05/04 A3025

More Conditions Fewer Conditions

10-Day Weather Forecast

Almanac

Astronomy

Oct. 22, 2014 Rise Set
Actual Time 7:24 AM MDT 6:17 PM MDT
Civil Twilight 6:57 AM MDT 6:44 PM MDT
Nautical Twilight 6:25 AM MDT 7:16 PM MDT
Astronomical Twilight 5:54 AM MDT 7:47 PM MDT
Moon 6:09 AM MDT 5:45 PM MDT
Length of Visible Light 11h 47m
Length of Day
10h 52m
Tomorrow will be 2m 26s shorter.
Waning Crescent, 2% of the Moon is Illuminated
Today
Waning Crescent
Oct 23
New
Oct 30
First Quarter
Nov 6
Full
Nov 14
Last Quarter

Today's Extremes

State Highs State Lows

Community

WunderPhotos

Upload Photos

1,763,949 photos uploaded!

Nearby

Snow Depth

Station Depth Elevation
Lynx Pass 0 in 8880 ft
Mccoy Park 3 in 9480 ft
Beaver Creek Village 0 in 8500 ft
Buffalo Park 0 in 9240 ft
Crosho 0 in 9100 ft

Earthquake Activity

City Distance Mag. Time & Date
No recent earthquake activity has been reported nearby.
Minimum magnitude displayed is 2.5.

Coastal Water Temperatures

Place Temperature
No Stations Reporting

Nearby Weather Stations